createdAt,value
2023-04-26T00:01:31.087Z,13.32
2023-04-26T00:03:58.079Z,14.07
2023-04-26T00:06:27.419Z,10.60
2023-04-26T00:08:54.802Z,9.17
2023-04-26T00:11:22.080Z,12.88
2023-04-26T00:13:48.897Z,9.30
2023-04-26T00:16:16.628Z,9.30
2023-04-26T00:18:43.458Z,11.13
2023-04-26T00:21:10.712Z,13.30
2023-04-26T00:23:37.952Z,12.18
2023-04-26T00:26:04.895Z,11.05
2023-04-26T00:28:31.692Z,11.10
2023-04-26T00:30:58.514Z,9.80
2023-04-26T00:33:26.052Z,12.13
2023-04-26T00:35:52.921Z,11.60
2023-04-26T00:38:19.720Z,12.13
2023-04-26T00:40:46.569Z,11.50
2023-04-26T00:43:13.356Z,12.20
2023-04-26T00:45:40.380Z,13.53
2023-04-26T00:48:07.302Z,9.88
2023-04-26T00:50:34.178Z,11.90
2023-04-26T00:53:01.094Z,11.35
2023-04-26T00:55:27.955Z,11.40
2023-04-26T00:57:55.479Z,11.47
2023-04-26T01:00:22.845Z,13.05
2023-04-26T01:02:49.861Z,11.60
2023-04-26T01:05:16.835Z,11.43
2023-04-26T01:07:43.737Z,14.60
2023-04-26T01:10:10.991Z,12.20
2023-04-26T01:12:39.078Z,10.07
2023-04-26T01:15:06.375Z,13.90
2023-04-26T01:17:33.953Z,15.25
2023-04-26T01:20:00.910Z,9.25
2023-04-26T01:22:28.754Z,13.47
2023-04-26T01:24:55.632Z,15.15
2023-04-26T01:27:22.738Z,10.73
2023-04-26T01:29:49.612Z,14.57
2023-04-26T01:32:16.472Z,10.63
2023-04-26T01:34:43.277Z,13.53
2023-04-26T01:37:10.149Z,14.55
2023-04-26T01:39:36.957Z,11.98
2023-04-26T01:42:04.929Z,13.98
2023-04-26T01:44:31.948Z,9.73
2023-04-26T01:46:58.769Z,10.63
2023-04-26T01:49:25.533Z,10.95
2023-04-26T01:51:52.370Z,11.88
2023-04-26T01:54:19.167Z,10.57
2023-04-26T01:56:45.993Z,12.80
2023-04-26T01:59:12.851Z,13.43
2023-04-26T02:01:41.898Z,9.63
2023-04-26T02:04:08.830Z,8.73
2023-04-26T02:06:35.824Z,13.35
2023-04-26T02:09:02.606Z,10.18
2023-04-26T02:11:29.410Z,7.33
2023-04-26T02:13:56.462Z,10.75
2023-04-26T02:16:23.212Z,13.48
2023-04-26T02:18:50.358Z,14.43
2023-04-26T02:21:20.642Z,13.27
2023-04-26T02:23:47.522Z,11.70
2023-04-26T02:26:14.594Z,11.07
2023-04-26T02:28:42.084Z,10.57
2023-04-26T02:31:09.109Z,13.00
2023-04-26T02:33:36.136Z,11.82
2023-04-26T02:36:06.489Z,8.33
2023-04-26T02:38:35.133Z,10.82
2023-04-26T02:41:02.479Z,8.02
2023-04-26T02:43:29.534Z,12.40
2023-04-26T02:45:58.756Z,16.52
2023-04-26T02:48:25.775Z,9.07
2023-04-26T02:50:52.680Z,9.48
2023-04-26T02:53:19.472Z,11.93
2023-04-26T02:55:46.262Z,12.52
2023-04-26T02:58:13.294Z,10.90
2023-04-26T03:00:45.601Z,16.10
2023-04-26T03:03:12.570Z,12.30
2023-04-26T03:05:39.503Z,9.38
2023-04-26T03:08:06.269Z,12.68
2023-04-26T03:10:33.055Z,12.23
2023-04-26T03:12:59.836Z,16.23
2023-04-26T03:15:26.772Z,10.80
2023-04-26T03:17:53.666Z,13.88
2023-04-26T03:20:21.013Z,11.45
2023-04-26T03:22:47.740Z,9.00
2023-04-26T03:25:15.816Z,10.47
2023-04-26T03:27:42.618Z,12.35
2023-04-26T03:30:09.801Z,11.07
2023-04-26T03:32:36.585Z,10.30
2023-04-26T03:35:03.422Z,13.60
2023-04-26T03:37:30.138Z,11.17
2023-04-26T03:39:56.980Z,11.73
2023-04-26T03:42:23.943Z,10.95
2023-04-26T03:44:50.715Z,14.13
2023-04-26T03:47:17.581Z,9.65
2023-04-26T03:49:44.334Z,11.73
2023-04-26T03:52:11.197Z,11.77
2023-04-26T03:54:37.980Z,9.90
2023-04-26T03:57:04.767Z,13.35
2023-04-26T03:59:31.757Z,13.82
2023-04-26T04:01:58.588Z,8.63
2023-04-26T04:04:25.685Z,10.18
2023-04-26T04:06:52.637Z,7.43
2023-04-26T04:09:19.417Z,7.93
2023-04-26T04:11:47.554Z,10.23
2023-04-26T04:14:14.518Z,11.93
2023-04-26T04:16:41.247Z,11.82
2023-04-26T04:19:08.812Z,12.35
2023-04-26T04:21:35.574Z,7.95
2023-04-26T04:24:02.334Z,10.63
2023-04-26T04:26:29.174Z,12.30
2023-04-26T04:28:57.580Z,9.93
2023-04-26T04:31:25.014Z,12.30
2023-04-26T04:33:51.760Z,12.25
2023-04-26T04:36:18.580Z,9.27
2023-04-26T04:38:45.398Z,8.63
2023-04-26T04:41:12.355Z,14.13
2023-04-26T04:43:39.160Z,10.45
2023-04-26T04:46:06.014Z,13.07
2023-04-26T04:48:33.698Z,12.13
2023-04-26T04:51:00.692Z,10.30
2023-04-26T04:53:27.539Z,8.82
2023-04-26T04:55:54.356Z,9.23
2023-04-26T04:58:22.584Z,8.80
2023-04-26T05:00:50.410Z,8.02
2023-04-26T05:03:17.330Z,9.63
2023-04-26T05:05:44.252Z,8.50
2023-04-26T05:08:11.104Z,12.90
2023-04-26T05:10:37.973Z,8.25
2023-04-26T05:13:06.116Z,8.45
2023-04-26T05:15:33.153Z,14.23
2023-04-26T05:18:00.074Z,10.93
2023-04-26T05:20:27.115Z,12.07
2023-04-26T05:22:53.855Z,11.43
2023-04-26T05:25:22.420Z,8.85
2023-04-26T05:27:49.562Z,8.93
2023-04-26T05:30:16.749Z,11.25
2023-04-26T05:32:43.535Z,10.38
2023-04-26T05:35:10.270Z,11.25
2023-04-26T05:37:37.046Z,8.10
2023-04-26T05:40:04.791Z,11.43
2023-04-26T05:42:31.594Z,9.98
2023-04-26T05:44:59.165Z,13.27
2023-04-26T05:47:26.521Z,11.98
2023-04-26T05:49:53.345Z,10.60
2023-04-26T05:52:20.141Z,13.07
2023-04-26T05:54:46.970Z,11.30
2023-04-26T05:57:13.893Z,9.05
2023-04-26T05:59:41.340Z,12.38
2023-04-26T06:02:08.239Z,13.25
2023-04-26T06:04:35.631Z,11.50
2023-04-26T06:07:02.464Z,11.02
2023-04-26T06:09:31.687Z,10.30
2023-04-26T06:11:58.583Z,11.90
2023-04-26T06:14:30.533Z,10.10
2023-04-26T06:16:58.131Z,10.83
2023-04-26T06:19:25.044Z,10.38
2023-04-26T06:21:54.996Z,10.82
2023-04-26T06:24:21.849Z,12.35
2023-04-26T06:26:48.610Z,9.95
2023-04-26T06:29:15.522Z,10.10
2023-04-26T06:31:42.415Z,10.45
2023-04-26T06:34:09.384Z,10.82
2023-04-26T06:36:36.110Z,9.45
2023-04-26T06:39:03.274Z,10.73
2023-04-26T06:41:30.031Z,12.77
2023-04-26T06:43:56.913Z,11.32
2023-04-26T06:48:52.865Z,12.02
2023-04-26T06:51:19.583Z,9.73
2023-04-26T06:53:46.445Z,11.57
2023-04-26T06:56:13.194Z,9.20
2023-04-26T06:58:39.971Z,10.98
2023-04-26T07:01:08.667Z,10.18
2023-04-26T07:03:35.553Z,8.95
2023-04-26T07:06:02.488Z,8.90
2023-04-26T07:08:29.251Z,12.05
2023-04-26T07:10:56.005Z,11.60
2023-04-26T07:13:22.739Z,10.00
2023-04-26T07:15:49.559Z,10.73
2023-04-26T07:18:16.397Z,9.53
2023-04-26T07:20:43.176Z,9.70
2023-04-26T07:23:09.981Z,10.60
2023-04-26T07:25:36.724Z,13.93
2023-04-26T07:28:03.493Z,13.32
2023-04-26T07:30:32.565Z,12.63
2023-04-26T07:32:59.444Z,15.45
2023-04-26T07:35:26.344Z,15.75
2023-04-26T07:37:53.184Z,15.90
2023-04-26T07:40:22.732Z,14.27
2023-04-26T07:42:49.507Z,12.60
2023-04-26T07:45:16.365Z,15.13
2023-04-26T07:47:43.158Z,12.25
2023-04-26T07:50:10.780Z,12.10
2023-04-26T07:52:37.636Z,12.75
2023-04-26T07:55:04.697Z,11.63
2023-04-26T07:57:31.460Z,10.20
2023-04-26T07:59:58.337Z,14.20
2023-04-26T08:02:33.234Z,13.55
2023-04-26T08:05:04.235Z,10.13
2023-04-26T08:07:31.216Z,13.57
2023-04-26T08:09:58.144Z,11.30
2023-04-26T08:12:24.908Z,10.23
2023-04-26T08:14:51.738Z,11.45
2023-04-26T08:17:18.497Z,9.82
2023-04-26T08:19:45.221Z,10.53
2023-04-26T08:22:12.054Z,10.60
2023-04-26T08:24:38.820Z,10.95
2023-04-26T08:27:06.382Z,6.95
2023-04-26T08:29:33.098Z,6.65
2023-04-26T08:32:00.165Z,9.90
2023-04-26T08:34:28.395Z,6.50
2023-04-26T08:36:55.259Z,8.43
2023-04-26T08:39:22.051Z,9.60
2023-04-26T08:41:55.053Z,7.22
2023-04-26T08:44:26.760Z,7.30
2023-04-26T08:47:08.438Z,8.10
2023-04-26T08:49:41.821Z,9.00
2023-04-26T08:52:12.440Z,8.15
2023-04-26T08:54:39.873Z,9.70
2023-04-26T08:57:10.394Z,7.57
2023-04-26T08:59:37.640Z,9.13
2023-04-26T09:02:07.504Z,7.20
2023-04-26T09:04:34.643Z,6.38
2023-04-26T09:07:03.243Z,5.53
2023-04-26T09:09:41.564Z,7.73
2023-04-26T09:12:08.482Z,6.75
2023-04-26T09:14:35.237Z,7.10
2023-04-26T09:17:02.004Z,5.82
2023-04-26T09:19:44.217Z,7.63
2023-04-26T09:22:11.300Z,7.87
2023-04-26T09:24:50.760Z,8.32
2023-04-26T09:27:17.735Z,5.97
2023-04-26T09:30:17.482Z,6.20
2023-04-26T09:32:58.296Z,7.93
2023-04-26T09:35:26.962Z,5.63
2023-04-26T09:38:02.983Z,6.22
2023-04-26T09:40:34.473Z,5.38
2023-04-26T09:43:03.419Z,4.97
2023-04-26T09:45:31.254Z,5.40
2023-04-26T09:48:22.738Z,7.63
2023-04-26T09:50:52.579Z,6.38
2023-04-26T09:53:34.449Z,5.90
2023-04-26T09:56:09.909Z,5.88
2023-04-26T09:58:37.976Z,5.80
2023-04-26T10:01:05.725Z,6.17
2023-04-26T10:03:34.664Z,6.13
2023-04-26T10:06:01.614Z,5.60
2023-04-26T10:08:28.436Z,5.97
2023-04-26T10:10:55.570Z,7.15
2023-04-26T10:13:22.323Z,6.70
2023-04-26T10:15:49.222Z,5.20
2023-04-26T10:18:16.062Z,6.15
2023-04-26T10:20:44.996Z,6.18
2023-04-26T10:23:21.753Z,8.02
2023-04-26T10:25:49.159Z,5.30
2023-04-26T10:28:18.235Z,6.22
2023-04-26T10:30:55.539Z,6.03
2023-04-26T10:33:23.926Z,10.40
2023-04-26T10:36:08.165Z,6.43
2023-04-26T10:38:39.661Z,7.73
2023-04-26T10:41:29.377Z,10.88
2023-04-26T10:43:56.505Z,7.53
2023-04-26T10:46:43.261Z,10.57
2023-04-26T10:49:17.196Z,8.45
2023-04-26T10:52:23.169Z,6.67
2023-04-26T10:54:53.977Z,7.60
2023-04-26T10:57:21.662Z,12.63
2023-04-26T11:00:08.953Z,9.57
2023-04-26T11:02:54.195Z,7.82
2023-04-26T11:05:58.525Z,6.97
2023-04-26T11:08:26.994Z,8.48
2023-04-26T11:11:10.322Z,7.97
2023-04-26T11:13:41.456Z,8.77
2023-04-26T11:16:08.947Z,9.82
2023-04-26T11:18:36.598Z,10.03
2023-04-26T11:21:03.616Z,8.45
2023-04-26T11:23:31.054Z,7.10
2023-04-26T11:26:04.645Z,7.95
2023-04-26T11:28:34.310Z,7.53
2023-04-26T11:31:04.934Z,7.13
2023-04-26T11:33:34.380Z,9.55
2023-04-26T11:36:01.651Z,8.82
2023-04-26T11:38:28.929Z,8.43
2023-04-26T11:40:56.792Z,8.25
2023-04-26T11:43:29.337Z,8.60
2023-04-26T11:45:59.472Z,6.65
2023-04-26T11:48:26.313Z,7.22
2023-04-26T11:50:53.168Z,7.20
2023-04-26T11:53:19.943Z,8.40
2023-04-26T11:55:46.782Z,11.13
2023-04-26T11:58:14.040Z,7.40
2023-04-26T12:01:00.535Z,10.65
2023-04-26T12:03:35.715Z,6.82
2023-04-26T12:06:02.725Z,6.57
2023-04-26T12:08:29.686Z,7.83
2023-04-26T12:11:01.309Z,8.18
2023-04-26T12:13:29.266Z,8.13
2023-04-26T12:15:56.414Z,8.13
2023-04-26T12:18:30.087Z,6.53
2023-04-26T12:20:59.116Z,7.37
2023-04-26T12:23:26.677Z,4.78
2023-04-26T12:25:55.104Z,10.75
2023-04-26T12:28:22.252Z,5.97
2023-04-26T12:30:49.465Z,6.00
2023-04-26T12:33:17.887Z,5.60
2023-04-26T12:35:45.176Z,8.48
2023-04-26T12:38:12.540Z,6.38
2023-04-26T12:40:39.524Z,5.63
2023-04-26T12:43:06.355Z,6.95
2023-04-26T12:45:33.153Z,7.03
2023-04-26T12:48:00.097Z,6.45
2023-04-26T12:50:27.732Z,7.07
2023-04-26T12:52:55.264Z,4.90
2023-04-26T12:55:22.145Z,7.07
2023-04-26T12:57:48.964Z,5.50
2023-04-26T13:00:17.723Z,5.03
2023-04-26T13:02:44.908Z,7.05
2023-04-26T13:05:12.945Z,6.93
2023-04-26T13:07:41.975Z,4.03
2023-04-26T13:10:12.930Z,7.47
2023-04-26T13:12:40.453Z,6.95
2023-04-26T13:15:08.188Z,5.60
2023-04-26T13:17:36.393Z,7.30
2023-04-26T13:20:04.765Z,7.45
2023-04-26T13:22:31.709Z,7.63
2023-04-26T13:25:00.621Z,8.93
2023-04-26T13:27:29.868Z,5.13
2023-04-26T13:29:58.682Z,7.18
2023-04-26T13:32:25.694Z,6.15
2023-04-26T13:34:53.372Z,7.10
2023-04-26T13:37:21.472Z,5.30
2023-04-26T13:39:48.474Z,9.65
2023-04-26T13:42:16.503Z,10.40
2023-04-26T13:44:43.551Z,8.02
2023-04-26T13:47:10.464Z,5.47
2023-04-26T13:49:38.164Z,6.63
2023-04-26T13:52:05.113Z,7.05
2023-04-26T13:54:32.026Z,5.32
2023-04-26T13:56:59.096Z,6.05
2023-04-26T13:59:26.838Z,5.57
2023-04-26T14:01:56.354Z,5.45
2023-04-26T14:04:25.851Z,6.78
2023-04-26T14:06:53.001Z,6.65
2023-04-26T14:09:19.800Z,6.05
2023-04-26T14:11:51.489Z,8.60
2023-04-26T14:14:20.998Z,8.07
2023-04-26T14:16:47.801Z,7.43
2023-04-26T14:19:17.329Z,7.80
2023-04-26T14:21:44.257Z,7.78
2023-04-26T14:24:11.748Z,8.43
2023-04-26T14:26:38.708Z,4.45
2023-04-26T14:29:05.515Z,4.53
2023-04-26T14:31:32.820Z,5.32
2023-04-26T14:33:59.725Z,6.70
2023-04-26T14:36:26.788Z,6.10
2023-04-26T14:38:53.660Z,6.30
2023-04-26T14:41:20.589Z,6.88
2023-04-26T14:43:47.498Z,6.32
2023-04-26T14:46:14.554Z,5.18
2023-04-26T14:48:43.780Z,5.63
2023-04-26T14:51:11.256Z,6.82
2023-04-26T14:53:38.806Z,7.07
2023-04-26T14:56:07.753Z,7.57
2023-04-26T14:58:34.840Z,6.75
2023-04-26T15:01:02.656Z,5.60
2023-04-26T15:03:29.811Z,11.23
2023-04-26T15:05:56.932Z,6.05
2023-04-26T15:08:23.810Z,6.88
2023-04-26T15:10:51.490Z,4.50
2023-04-26T15:13:18.781Z,3.90
2023-04-26T15:15:45.785Z,6.13
2023-04-26T15:18:12.621Z,6.30
2023-04-26T15:20:40.939Z,5.72
2023-04-26T15:23:08.563Z,7.97
2023-04-26T15:25:36.990Z,5.43
2023-04-26T15:28:04.180Z,5.97
2023-04-26T15:30:30.945Z,7.00
2023-04-26T15:32:57.877Z,9.18
2023-04-26T15:35:25.283Z,6.05
2023-04-26T15:37:54.111Z,7.97
2023-04-26T15:40:21.893Z,21.38
2023-04-26T15:42:49.952Z,125.70
2023-04-26T15:45:17.043Z,110.68
2023-04-26T15:47:43.997Z,1763.57
2023-04-26T15:50:11.376Z,1999.90
2023-04-26T15:52:39.459Z,1999.90
2023-04-26T15:55:10.577Z,1999.90
2023-04-26T15:57:37.885Z,1999.90
2023-04-26T16:00:08.722Z,1999.90
2023-04-26T16:02:36.154Z,1999.90
2023-04-26T16:05:04.890Z,1838.90
2023-04-26T16:07:32.125Z,1684.47
2023-04-26T16:09:58.907Z,1509.93
2023-04-26T16:12:25.925Z,1357.55
2023-04-26T16:14:52.778Z,1213.33
2023-04-26T16:17:19.627Z,1098.15
2023-04-26T16:19:46.726Z,1023.90
2023-04-26T16:22:13.537Z,931.63
2023-04-26T16:24:40.487Z,848.70
2023-04-26T16:27:07.332Z,771.33
2023-04-26T16:29:34.130Z,701.15
2023-04-26T16:32:01.068Z,642.42
2023-04-26T16:34:28.320Z,580.35
2023-04-26T16:36:55.124Z,541.13
2023-04-26T16:39:21.981Z,480.60
2023-04-26T16:41:48.905Z,419.40
2023-04-26T16:44:16.887Z,349.15
2023-04-26T16:46:43.777Z,317.67
2023-04-26T16:49:11.025Z,287.58
2023-04-26T16:51:38.486Z,254.40
2023-04-26T16:54:05.543Z,237.93
2023-04-26T16:56:32.518Z,200.65
2023-04-26T16:58:59.634Z,180.45
2023-04-26T17:01:26.682Z,164.25
2023-04-26T17:03:53.985Z,145.27
2023-04-26T17:06:21.146Z,128.70
2023-04-26T17:08:48.167Z,112.03
2023-04-26T17:11:17.982Z,93.18
2023-04-26T17:13:45.076Z,81.47
2023-04-26T17:16:12.259Z,75.07
2023-04-26T17:18:39.162Z,69.45
2023-04-26T17:21:06.159Z,58.47
2023-04-26T17:23:33.944Z,56.63
2023-04-26T17:26:04.456Z,51.45
2023-04-26T17:28:33.155Z,47.63
2023-04-26T17:31:00.305Z,44.92
2023-04-26T17:33:27.223Z,42.45
2023-04-26T17:35:54.007Z,37.95
2023-04-26T17:38:20.855Z,32.47
2023-04-26T17:40:52.659Z,35.60
2023-04-26T17:43:19.852Z,30.45
2023-04-26T17:45:46.978Z,28.63
2023-04-26T17:48:13.915Z,25.05
2023-04-26T17:50:41.020Z,25.05
2023-04-26T17:53:08.384Z,22.17
2023-04-26T17:55:35.170Z,21.67
2023-04-26T17:58:01.961Z,19.23
2023-04-26T18:00:28.703Z,16.75
2023-04-26T18:02:57.674Z,19.23
2023-04-26T18:05:25.174Z,17.03
2023-04-26T18:07:52.139Z,14.77
2023-04-26T18:10:18.976Z,15.38
2023-04-26T18:12:45.762Z,15.73
2023-04-26T18:15:13.774Z,15.27
2023-04-26T18:17:41.302Z,15.70
2023-04-26T18:20:08.558Z,12.77
2023-04-26T18:22:35.456Z,15.48
2023-04-26T18:25:02.194Z,13.70
2023-04-26T18:27:28.859Z,14.38
2023-04-26T18:29:55.555Z,14.20
2023-04-26T18:32:22.272Z,13.75
2023-04-26T18:34:48.981Z,11.02
2023-04-26T18:37:15.843Z,12.13
2023-04-26T18:39:42.625Z,12.13
2023-04-26T18:42:09.529Z,10.53
2023-04-26T18:44:36.356Z,14.77
2023-04-26T18:47:03.168Z,8.63
2023-04-26T18:49:30.038Z,9.90
2023-04-26T18:51:57.441Z,12.40
2023-04-26T18:54:24.372Z,13.17
2023-04-26T18:56:51.160Z,11.68
2023-04-26T18:59:17.941Z,10.07
2023-04-26T19:01:44.840Z,10.90
2023-04-26T19:04:12.248Z,13.27
2023-04-26T19:06:41.519Z,10.63
2023-04-26T19:09:11.804Z,10.05
2023-04-26T19:11:38.860Z,9.65
2023-04-26T19:14:05.759Z,10.48
2023-04-26T19:16:32.669Z,10.75
2023-04-26T19:18:59.529Z,10.50
2023-04-26T19:21:26.779Z,12.95
2023-04-26T19:23:53.556Z,7.97
2023-04-26T19:26:20.559Z,9.40
2023-04-26T19:28:47.471Z,9.40
2023-04-26T19:31:14.325Z,8.37
2023-04-26T19:33:41.604Z,7.45
2023-04-26T19:36:09.425Z,9.77
2023-04-26T19:38:36.232Z,7.40
2023-04-26T19:41:03.021Z,8.10
2023-04-26T19:43:29.813Z,10.67
2023-04-26T19:45:56.688Z,9.73
2023-04-26T19:48:23.451Z,10.00
2023-04-26T19:50:50.225Z,9.70
2023-04-26T19:53:16.964Z,7.53
2023-04-26T19:55:44.062Z,7.23
2023-04-26T19:58:11.106Z,7.85
2023-04-26T20:00:39.238Z,8.43
2023-04-26T20:03:06.701Z,8.50
2023-04-26T20:05:34.013Z,8.05
2023-04-26T20:08:01.473Z,7.07
2023-04-26T20:10:32.204Z,9.30
2023-04-26T20:12:59.463Z,11.07
2023-04-26T20:15:27.522Z,8.18
2023-04-26T20:17:54.452Z,6.97
2023-04-26T20:20:21.396Z,7.77
2023-04-26T20:22:48.202Z,6.85
2023-04-26T20:25:14.961Z,8.93
2023-04-26T20:27:41.813Z,7.13
2023-04-26T20:30:09.134Z,8.35
2023-04-26T20:32:35.938Z,9.23
2023-04-26T20:35:02.812Z,6.53
2023-04-26T20:37:29.639Z,7.93
2023-04-26T20:39:57.502Z,9.25
2023-04-26T20:42:24.991Z,7.90
2023-04-26T20:44:52.348Z,9.03
2023-04-26T20:47:19.400Z,7.20
2023-04-26T20:49:46.171Z,6.65
2023-04-26T20:52:13.149Z,7.50
2023-04-26T20:54:39.970Z,8.85
2023-04-26T20:57:06.739Z,7.00
2023-04-26T20:59:33.470Z,6.25
2023-04-26T21:02:00.324Z,7.38
2023-04-26T21:04:27.374Z,8.77
2023-04-26T21:06:54.356Z,9.32
2023-04-26T21:09:21.631Z,7.37
2023-04-26T21:11:48.430Z,8.98
2023-04-26T21:14:15.180Z,6.55
2023-04-26T21:16:41.977Z,5.88
2023-04-26T21:19:08.964Z,9.20
2023-04-26T21:21:35.883Z,7.77
2023-04-26T21:24:04.042Z,5.38
2023-04-26T21:26:31.068Z,7.07
2023-04-26T21:28:57.900Z,10.35
2023-04-26T21:31:24.782Z,8.57
2023-04-26T21:33:51.526Z,6.00
2023-04-26T21:36:18.388Z,8.75
2023-04-26T21:38:45.125Z,8.65
2023-04-26T21:41:11.961Z,5.70
2023-04-26T21:43:38.793Z,7.03
2023-04-26T21:46:06.651Z,10.00
2023-04-26T21:48:33.471Z,8.65
2023-04-26T21:51:00.414Z,6.95
2023-04-26T21:53:27.317Z,6.93
2023-04-26T21:55:54.156Z,4.93
2023-04-26T21:58:21.580Z,7.57
2023-04-26T22:00:48.961Z,12.70
2023-04-26T22:03:16.485Z,10.93
2023-04-26T22:05:43.537Z,6.20
2023-04-26T22:08:10.459Z,5.85
2023-04-26T22:10:37.272Z,6.33
2023-04-26T22:13:05.346Z,9.95
2023-04-26T22:15:32.215Z,5.38
2023-04-26T22:17:59.034Z,5.35
2023-04-26T22:20:26.590Z,6.43
2023-04-26T22:22:53.904Z,8.97
2023-04-26T22:25:21.136Z,6.25
2023-04-26T22:27:48.437Z,7.93
2023-04-26T22:30:25.537Z,8.32
2023-04-26T22:32:54.962Z,5.80
2023-04-26T22:35:22.399Z,7.63
2023-04-26T22:37:49.299Z,7.57
2023-04-26T22:40:16.290Z,9.00
2023-04-26T22:42:43.426Z,7.63
2023-04-26T22:45:10.879Z,9.25
2023-04-26T22:47:37.886Z,9.90
2023-04-26T22:50:05.157Z,6.72
2023-04-26T22:52:32.424Z,7.20
2023-04-26T22:55:00.087Z,10.73
2023-04-26T22:57:28.263Z,6.50
2023-04-26T22:59:54.989Z,7.67
2023-04-26T23:02:22.031Z,7.22
2023-04-26T23:04:48.942Z,9.05
2023-04-26T23:07:16.557Z,7.53
2023-04-26T23:09:43.427Z,7.57
2023-04-26T23:12:10.238Z,9.17
2023-04-26T23:14:37.900Z,7.50
2023-04-26T23:17:05.573Z,7.95
2023-04-26T23:19:33.256Z,7.60
2023-04-26T23:22:00.283Z,7.82
2023-04-26T23:24:27.148Z,7.43
2023-04-26T23:26:53.950Z,11.00
2023-04-26T23:29:20.762Z,10.80
2023-04-26T23:31:47.640Z,6.95
2023-04-26T23:34:14.453Z,7.15
2023-04-26T23:36:41.251Z,7.80
2023-04-26T23:39:08.904Z,7.80
2023-04-26T23:41:35.999Z,8.10
2023-04-26T23:44:02.867Z,8.93
2023-04-26T23:46:29.689Z,8.43
2023-04-26T23:48:56.461Z,5.63
2023-04-26T23:51:23.222Z,8.85
2023-04-26T23:53:49.981Z,8.45
2023-04-26T23:56:16.755Z,8.30
2023-04-26T23:58:43.494Z,8.15
